Time;durP1;ratioP1;P1;durP2;ratioP2;P2;SDS_P1;SDS_P2;PMS_P1;PMS_P2;Temp;Humidity;BMP_temperature;BMP_pressure;BME280_temperature;BME280_humidity;BME280_pressure;Samples;Min_cycle;Max_cycle;Signal;HPM_P1;HPM_P2
2022/04/30 00:00:04;;;;;;;35.20;20.70;;;27.80;99.90;;;;;;5043045;28;20037;-63
2022/04/30 00:02:31;;;;;;;34.63;21.40;;;27.80;99.90;;;;;;5045756;28;20082;-63
2022/04/30 00:04:58;;;;;;;36.63;25.38;;;27.80;99.90;;;;;;5043438;28;20025;-63
2022/04/30 00:07:24;;;;;;;41.72;26.70;;;27.80;99.90;;;;;;5042965;28;20471;-63
2022/04/30 00:09:51;;;;;;;33.10;23.45;;;27.80;99.90;;;;;;5043556;28;20080;-63
2022/04/30 00:12:18;;;;;;;41.97;23.45;;;27.80;99.90;;;;;;5045258;28;20083;-63
2022/04/30 00:14:46;;;;;;;27.67;20.77;;;27.80;99.90;;;;;;5043738;28;20022;-65
2022/04/30 00:17:14;;;;;;;28.80;18.63;;;27.80;99.90;;;;;;5046396;28;20378;-60
2022/04/30 00:19:41;;;;;;;25.73;18.27;;;27.80;99.90;;;;;;5042911;28;20140;-63
2022/04/30 00:22:08;;;;;;;24.77;17.95;;;27.70;99.90;;;;;;5043398;28;20033;-64
2022/04/30 00:24:38;;;;;;;27.20;17.38;;;27.70;99.90;;;;;;5041265;28;20032;-65
2022/04/30 00:27:05;;;;;;;25.00;15.57;;;27.80;99.90;;;;;;5044690;28;20029;-64
2022/04/30 00:29:32;;;;;;;27.80;15.10;;;27.90;99.90;;;;;;5042181;28;20449;-64
2022/04/30 00:32:03;;;;;;;23.13;13.77;;;27.90;99.90;;;;;;5044776;28;20028;-64
2022/04/30 00:34:30;;;;;;;35.22;16.17;;;27.90;99.90;;;;;;5042838;28;20022;-64
2022/04/30 00:37:02;;;;;;;28.95;14.80;;;27.90;99.90;;;;;;5041295;28;20022;-68
2022/04/30 00:39:30;;;;;;;26.20;14.55;;;27.90;99.90;;;;;;5046292;28;20029;-67
2022/04/30 00:41:58;;;;;;;24.80;15.60;;;27.90;99.90;;;;;;5047243;28;20032;-69
2022/04/30 00:44:25;;;;;;;30.85;20.70;;;27.90;99.90;;;;;;5046468;28;20474;-68
2022/04/30 00:46:52;;;;;;;36.40;18.67;;;27.80;99.90;;;;;;5046851;28;20037;-68
2022/04/30 00:49:18;;;;;;;24.45;15.27;;;27.80;99.90;;;;;;5045284;28;20028;-68
2022/04/30 00:51:45;;;;;;;24.33;16.35;;;27.80;99.90;;;;;;5045770;28;20458;-66
2022/04/30 00:54:13;;;;;;;30.10;18.65;;;27.90;99.90;;;;;;5046089;28;20025;-67
2022/04/30 00:56:52;;;;;;;32.92;20.92;;;27.90;99.90;;;;;;5047052;28;20030;-67
2022/04/30 00:59:20;;;;;;;33.50;19.95;;;28.00;99.90;;;;;;5048921;28;20044;-68
2022/04/30 01:01:48;;;;;;;32.58;18.23;;;28.00;99.90;;;;;;5048336;28;20111;-68
2022/04/30 01:04:16;;;;;;;24.02;16.65;;;28.10;99.90;;;;;;5046987;28;20033;-67
2022/04/30 01:07:00;;;;;;;25.52;15.93;;;28.00;99.90;;;;;;5046732;28;20017;-67
2022/04/30 01:09:28;;;;;;;25.60;17.10;;;28.10;99.90;;;;;;5045557;28;20025;-67
2022/04/30 01:11:57;;;;;;;28.30;17.10;;;28.10;99.90;;;;;;5044894;28;20028;-67
2022/04/30 01:14:31;;;;;;;28.45;17.55;;;28.20;99.90;;;;;;5044918;28;20099;-68
2022/04/30 01:17:02;;;;;;;29.73;18.90;;;28.10;99.90;;;;;;5046865;28;20032;-68
2022/04/30 01:19:29;;;;;;;33.55;19.67;;;28.10;99.90;;;;;;5045533;28;20049;-69
2022/04/30 01:22:00;;;;;;;27.33;18.60;;;28.10;99.90;;;;;;5047980;28;20021;-69
2022/04/30 01:24:28;;;;;;;27.35;18.05;;;28.10;99.90;;;;;;5042321;28;20089;-68
2022/04/30 01:26:58;;;;;;;27.88;19.25;;;28.20;99.90;;;;;;5049061;28;20028;-67
2022/04/30 01:29:27;;;;;;;35.10;21.58;;;28.10;99.90;;;;;;5045881;28;20033;-69
2022/04/30 01:39:56;;;;;;;21.55;15.15;;;28.20;99.90;;;;;;5045851;28;20579;-63
2022/04/30 01:42:25;;;;;;;29.63;20.10;;;28.30;99.90;;;;;;5045151;28;20036;-62
2022/04/30 01:44:53;;;;;;;34.13;24.23;;;28.30;99.90;;;;;;5044754;28;20090;-63
2022/04/30 01:47:21;;;;;;;34.45;25.15;;;28.30;99.90;;;;;;5047571;28;20033;-62
2022/04/30 01:49:48;;;;;;;29.20;20.42;;;28.30;99.90;;;;;;5045424;28;20053;-64
2022/04/30 01:52:15;;;;;;;26.20;14.48;;;28.30;99.90;;;;;;5043556;28;20025;-63
2022/04/30 01:54:43;;;;;;;22.67;15.18;;;28.20;99.90;;;;;;5045974;28;20029;-61
2022/04/30 01:57:10;;;;;;;22.88;13.63;;;28.20;99.90;;;;;;5045542;28;20117;-62
2022/04/30 01:59:37;;;;;;;24.70;13.35;;;28.30;99.90;;;;;;5048195;28;20049;-62
2022/04/30 02:02:05;;;;;;;27.42;15.40;;;28.30;99.90;;;;;;5045146;28;20374;-63
2022/04/30 02:04:35;;;;;;;30.67;19.40;;;28.30;99.90;;;;;;5045536;28;20030;-62
2022/04/30 02:07:03;;;;;;;63.33;43.58;;;28.40;99.90;;;;;;5042714;28;20067;-62
2022/04/30 02:09:31;;;;;;;40.33;26.30;;;28.40;99.90;;;;;;5045294;28;20473;-62
2022/04/30 02:11:59;;;;;;;356.95;227.20;;;28.40;99.90;;;;;;5043751;28;20021;-63
2022/04/30 02:14:31;;;;;;;197.18;118.93;;;28.50;99.90;;;;;;5045188;28;20038;-62
2022/04/30 02:17:01;;;;;;;273.98;161.88;;;28.50;99.90;;;;;;5045635;28;20024;-62
2022/04/30 02:20:18;;;;;;;102.43;59.92;;;28.40;99.90;;;;;;5044927;28;20029;-62
2022/04/30 02:22:18;;;;;;;43.58;25.92;;;28.40;99.90;;;;;;5045458;28;20128;-62
2022/04/30 02:24:46;;;;;;;56.85;31.52;;;28.40;99.90;;;;;;5044300;28;20509;-63
2022/04/30 02:27:13;;;;;;;58.38;33.05;;;28.40;99.90;;;;;;5050654;28;20103;-64
2022/04/30 02:29:40;;;;;;;53.42;32.92;;;28.40;99.90;;;;;;5046218;28;20029;-62
2022/04/30 02:32:07;;;;;;;41.75;25.38;;;28.40;99.90;;;;;;5045715;28;20102;-62
2022/04/30 02:34:35;;;;;;;46.53;27.65;;;28.50;99.90;;;;;;5046199;28;20359;-63
2022/04/30 02:37:03;;;;;;;66.07;36.85;;;28.50;99.90;;;;;;5047718;28;20103;-63
2022/04/30 02:39:32;;;;;;;90.43;46.53;;;28.60;99.90;;;;;;5047913;28;20025;-63
2022/04/30 02:41:58;;;;;;;112.18;61.08;;;28.70;99.90;;;;;;5045590;28;20025;-63
2022/04/30 02:44:26;;;;;;;67.88;41.40;;;28.70;99.90;;;;;;5044215;28;20025;-62
2022/04/30 02:46:55;;;;;;;46.83;30.05;;;28.70;99.90;;;;;;5044142;28;20112;-63
2022/04/30 02:49:22;;;;;;;32.97;18.70;;;28.80;99.90;;;;;;5043090;28;20040;-62
2022/04/30 02:51:49;;;;;;;22.55;12.68;;;28.90;99.90;;;;;;5044523;28;20064;-64
2022/04/30 02:54:16;;;;;;;36.17;22.73;;;28.90;99.90;;;;;;5045588;28;20475;-63
2022/04/30 02:56:43;;;;;;;25.30;13.38;;;28.80;99.90;;;;;;5044423;28;20032;-64
2022/04/30 03:01:40;;;;;;;12.65;8.93;;;28.90;99.90;;;;;;5044685;28;20018;-63
2022/04/30 03:04:07;;;;;;;11.27;8.27;;;28.90;99.90;;;;;;5043771;28;20025;-62
2022/04/30 03:06:36;;;;;;;12.05;7.60;;;28.90;99.90;;;;;;5044593;28;20187;-63
2022/04/30 03:09:03;;;;;;;13.77;7.57;;;28.90;99.90;;;;;;5045881;28;20148;-62
2022/04/30 03:11:31;;;;;;;12.77;8.02;;;28.90;99.90;;;;;;5037934;28;20028;-65
2022/04/30 03:13:58;;;;;;;12.93;8.15;;;28.90;99.90;;;;;;5054238;28;20079;-66
2022/04/30 03:21:42;;;;;;;15.65;9.77;;;29.00;99.90;;;;;;5053892;28;20024;-66
2022/04/30 03:24:09;;;;;;;13.40;7.47;;;29.00;99.90;;;;;;5054130;28;20021;-67
2022/04/30 03:26:36;;;;;;;11.70;8.07;;;29.10;99.90;;;;;;5053290;28;20025;-68
2022/04/30 03:29:03;;;;;;;11.50;9.00;;;29.10;99.90;;;;;;5052479;28;20036;-67
2022/04/30 03:31:30;;;;;;;21.80;11.13;;;29.20;99.90;;;;;;5054041;28;20021;-68
2022/04/30 03:33:57;;;;;;;14.95;9.77;;;29.20;99.90;;;;;;5052640;28;20033;-67
2022/04/30 03:36:23;;;;;;;20.35;9.30;;;29.20;99.90;;;;;;5053668;28;20060;-68
2022/04/30 03:38:50;;;;;;;13.57;8.43;;;29.20;99.90;;;;;;5054125;28;20071;-67
2022/04/30 03:41:17;;;;;;;15.63;8.68;;;29.20;99.90;;;;;;5053806;28;20032;-67
2022/04/30 03:43:44;;;;;;;12.57;7.30;;;29.30;99.90;;;;;;5054163;28;20024;-68
2022/04/30 03:46:11;;;;;;;15.70;8.13;;;29.30;99.90;;;;;;5053914;28;20049;-70
2022/04/30 03:48:37;;;;;;;13.38;7.55;;;29.40;99.90;;;;;;5050049;28;20385;-67
2022/04/30 03:51:05;;;;;;;15.45;8.65;;;29.40;99.90;;;;;;5053327;28;20025;-68
2022/04/30 03:53:32;;;;;;;16.40;9.88;;;29.40;99.90;;;;;;5053146;28;20031;-70
2022/04/30 03:56:00;;;;;;;16.52;10.73;;;29.50;99.90;;;;;;5053737;28;20025;-66
2022/04/30 03:58:27;;;;;;;19.25;12.18;;;29.50;99.90;;;;;;5050926;28;20171;-67
2022/04/30 04:00:54;;;;;;;20.40;12.57;;;29.60;99.90;;;;;;5053593;28;20056;-68
2022/04/30 04:03:21;;;;;;;17.02;11.98;;;29.60;99.90;;;;;;5053727;28;20036;-67
2022/04/30 04:05:49;;;;;;;22.02;13.00;;;29.70;99.90;;;;;;5053361;28;20481;-65
2022/04/30 04:08:20;;;;;;;22.67;12.48;;;29.70;99.90;;;;;;5052222;28;20033;-68
2022/04/30 04:10:48;;;;;;;22.77;14.52;;;29.80;99.90;;;;;;5051303;28;20425;-68
2022/04/30 04:18:23;;;;;;;19.08;11.52;;;30.00;99.90;;;;;;5049208;28;20017;-69
2022/04/30 04:20:49;;;;;;;23.38;14.63;;;30.00;99.90;;;;;;5059111;28;20261;-67
2022/04/30 04:23:16;;;;;;;23.42;14.60;;;30.10;99.90;;;;;;5059353;28;20477;-66
2022/04/30 04:28:21;;;;;;;25.25;14.50;;;30.20;99.90;;;;;;5058334;28;20032;-68
2022/04/30 04:30:47;;;;;;;20.92;14.65;;;30.30;99.90;;;;;;5059318;28;20116;-67
2022/04/30 04:33:14;;;;;;;22.15;14.38;;;30.30;99.90;;;;;;5059993;28;20032;-66
2022/04/30 04:35:41;;;;;;;22.83;14.52;;;30.40;99.90;;;;;;5059327;28;20078;-72
2022/04/30 04:38:08;;;;;;;19.13;12.43;;;30.40;99.90;;;;;;5059480;28;20095;-71
2022/04/30 04:40:35;;;;;;;20.20;13.00;;;30.40;99.90;;;;;;5059570;28;20501;-68
2022/04/30 04:43:01;;;;;;;22.88;12.73;;;30.50;99.90;;;;;;5059465;28;20033;-66
2022/04/30 04:45:29;;;;;;;19.77;12.02;;;30.50;99.90;;;;;;5059412;28;20471;-68
2022/04/30 04:47:56;;;;;;;16.48;10.60;;;30.60;99.90;;;;;;5050736;28;20405;-64
2022/04/30 04:50:23;;;;;;;18.17;11.90;;;30.70;99.90;;;;;;5050316;28;20370;-64
2022/04/30 04:52:50;;;;;;;15.90;11.73;;;30.80;99.90;;;;;;5050465;28;20032;-61
2022/04/30 04:55:17;;;;;;;17.98;11.73;;;30.90;99.90;;;;;;5050111;28;20053;-63
2022/04/30 04:57:44;;;;;;;13.30;11.20;;;31.00;99.90;;;;;;5050476;28;20441;-63
2022/04/30 05:00:11;;;;;;;16.15;10.55;;;31.10;99.90;;;;;;5047840;28;20034;-62
2022/04/30 05:02:38;;;;;;;20.88;11.82;;;31.20;99.90;;;;;;5041298;28;20037;-63
2022/04/30 05:05:05;;;;;;;14.30;10.18;;;31.30;99.90;;;;;;5051452;28;20112;-62
2022/04/30 05:07:32;;;;;;;12.77;9.30;;;31.50;99.90;;;;;;5051409;28;20038;-61
2022/04/30 05:09:58;;;;;;;14.60;9.85;;;31.50;99.90;;;;;;5048291;28;20357;-62
2022/04/30 05:12:26;;;;;;;15.45;8.98;;;31.50;99.90;;;;;;5049854;28;20496;-63
2022/04/30 05:14:53;;;;;;;12.27;8.57;;;31.50;99.90;;;;;;5048650;28;20076;-60
2022/04/30 05:17:20;;;;;;;15.25;9.73;;;31.60;99.90;;;;;;5050281;28;20026;-65
2022/04/30 05:19:47;;;;;;;13.43;9.30;;;31.60;99.90;;;;;;5056482;28;20056;-64
2022/04/30 05:22:14;;;;;;;14.57;8.65;;;31.70;99.90;;;;;;5049821;28;20025;-66
2022/04/30 05:24:41;;;;;;;13.45;9.52;;;31.80;99.90;;;;;;5046827;28;20064;-63
2022/04/30 05:27:09;;;;;;;12.63;8.55;;;31.80;99.90;;;;;;5043445;28;20032;-63
2022/04/30 05:29:36;;;;;;;16.80;8.13;;;31.90;99.90;;;;;;5046602;28;20083;-63
2022/04/30 05:32:03;;;;;;;11.77;8.85;;;32.10;99.90;;;;;;5045875;28;20051;-64
2022/04/30 05:34:30;;;;;;;10.35;7.82;;;32.20;99.90;;;;;;5045172;28;20528;-63
2022/04/30 05:36:56;;;;;;;12.63;8.50;;;32.40;99.90;;;;;;5046123;28;20056;-64
2022/04/30 05:39:23;;;;;;;9.32;7.85;;;32.70;99.90;;;;;;5045355;28;20030;-67
2022/04/30 05:41:50;;;;;;;14.57;8.48;;;32.50;99.90;;;;;;5045548;28;20429;-65
2022/04/30 05:44:16;;;;;;;11.15;8.57;;;32.40;99.90;;;;;;5044664;28;20036;-62
2022/04/30 05:46:43;;;;;;;12.55;7.72;;;32.40;99.90;;;;;;5043090;28;20068;-62
2022/04/30 05:49:10;;;;;;;9.90;7.10;;;32.50;99.90;;;;;;5039408;28;20036;-64
2022/04/30 05:51:36;;;;;;;9.32;7.32;;;32.50;99.90;;;;;;5047139;28;20057;-64
2022/04/30 05:54:03;;;;;;;12.98;9.13;;;32.40;99.90;;;;;;5045036;28;20425;-63
2022/04/30 05:56:30;;;;;;;11.02;8.55;;;32.30;99.90;;;;;;5052468;28;20062;-64
2022/04/30 05:58:57;;;;;;;12.63;8.68;;;32.20;99.90;;;;;;5045678;28;20041;-68
2022/04/30 06:01:23;;;;;;;13.07;8.20;;;32.30;99.90;;;;;;5046990;28;20112;-65
2022/04/30 06:03:50;;;;;;;15.52;8.93;;;32.20;99.90;;;;;;5080556;22;20102;-63
2022/04/30 06:06:19;;;;;;;18.02;10.30;;;32.20;99.90;;;;;;5062940;28;20025;-61
2022/04/30 06:08:47;;;;;;;10.82;8.52;;;32.20;99.90;;;;;;5065421;28;20035;-65
2022/04/30 06:11:14;;;;;;;10.30;7.72;;;32.30;99.90;;;;;;5067678;28;20511;-64
2022/04/30 06:13:40;;;;;;;15.20;8.35;;;32.20;99.90;;;;;;5046776;28;20030;-64
2022/04/30 06:16:07;;;;;;;11.55;7.70;;;32.30;99.90;;;;;;5045292;28;20021;-64
2022/04/30 06:18:33;;;;;;;9.93;7.20;;;32.50;99.90;;;;;;5045856;28;20020;-63
2022/04/30 06:21:01;;;;;;;13.63;7.70;;;32.70;99.90;;;;;;5047469;28;20469;-65
2022/04/30 06:23:28;;;;;;;12.30;9.65;;;33.00;99.90;;;;;;5049986;28;20044;-64
2022/04/30 06:25:54;;;;;;;10.32;7.28;;;33.10;99.80;;;;;;5046160;28;20059;-64
2022/04/30 06:28:21;;;;;;;10.00;8.02;;;33.00;99.30;;;;;;5038281;28;20033;-65
2022/04/30 06:30:48;;;;;;;9.43;7.75;;;32.90;99.30;;;;;;5047824;28;20032;-62
2022/04/30 06:33:14;;;;;;;12.43;8.10;;;33.00;99.90;;;;;;5047392;28;20072;-64
2022/04/30 06:35:41;;;;;;;11.45;6.65;;;33.10;99.40;;;;;;5043511;28;20158;-64
2022/04/30 06:38:08;;;;;;;9.45;6.00;;;33.20;99.30;;;;;;5052353;28;20437;-65
2022/04/30 06:40:35;;;;;;;9.10;6.25;;;33.30;99.00;;;;;;5047366;28;20025;-65
2022/04/30 06:43:02;;;;;;;9.52;6.60;;;33.20;98.10;;;;;;5044904;28;20040;-65
2022/04/30 06:45:29;;;;;;;17.05;10.35;;;33.10;97.50;;;;;;5049846;28;20048;-62
2022/04/30 06:47:56;;;;;;;11.95;7.95;;;33.10;98.40;;;;;;5047286;28;20048;-62
2022/04/30 06:50:23;;;;;;;9.93;7.75;;;33.20;98.50;;;;;;5049004;28;20074;-64
2022/04/30 06:58:06;;;;;;;12.45;7.10;;;33.40;95.80;;;;;;5048274;28;20378;-64
2022/04/30 07:01:26;;;;;;;12.93;5.82;;;33.60;96.60;;;;;;5047263;28;20087;-63
2022/04/30 07:03:23;;;;;;;6.90;5.32;;;33.50;95.50;;;;;;5039567;28;20180;-62
2022/04/30 07:05:51;;;;;;;10.32;6.25;;;33.50;94.50;;;;;;5042584;28;20036;-64
2022/04/30 07:08:18;;;;;;;10.13;6.00;;;33.50;95.50;;;;;;5052696;28;20032;-63
2022/04/30 07:10:45;;;;;;;8.20;5.60;;;33.70;95.20;;;;;;5047277;28;20032;-62
2022/04/30 07:13:12;;;;;;;10.80;5.90;;;33.80;94.60;;;;;;5043210;28;20117;-62
2022/04/30 07:15:38;;;;;;;8.15;5.63;;;33.90;93.60;;;;;;5042002;28;20036;-63
2022/04/30 07:18:05;;;;;;;10.50;6.93;;;34.00;94.70;;;;;;5043659;28;20076;-64
2022/04/30 07:20:32;;;;;;;8.65;5.55;;;34.10;93.30;;;;;;5049738;28;20478;-62
2022/04/30 07:22:58;;;;;;;11.73;5.57;;;34.10;91.70;;;;;;5042254;28;20107;-62
2022/04/30 07:25:25;;;;;;;6.80;4.75;;;34.10;92.90;;;;;;5041743;28;20064;-64
2022/04/30 07:27:52;;;;;;;6.90;5.00;;;34.00;92.20;;;;;;5041169;28;20655;-63
2022/04/30 07:30:18;;;;;;;7.13;4.93;;;34.00;92.10;;;;;;5043897;28;20519;-64
2022/04/30 07:32:45;;;;;;;7.22;4.85;;;33.90;92.00;;;;;;5040558;28;20032;-63
2022/04/30 07:35:12;;;;;;;6.82;5.57;;;33.80;91.70;;;;;;5041383;28;20028;-63
2022/04/30 07:37:38;;;;;;;9.93;5.85;;;33.70;92.90;;;;;;5042985;28;20065;-70
2022/04/30 07:40:06;;;;;;;11.23;7.80;;;33.50;94.60;;;;;;5040730;28;20033;-73
2022/04/30 07:42:32;;;;;;;9.65;6.45;;;33.30;95.80;;;;;;5044566;28;20043;-69
2022/04/30 07:44:59;;;;;;;14.23;6.30;;;33.10;96.10;;;;;;5051814;28;20040;-71
2022/04/30 07:47:26;;;;;;;13.15;7.90;;;33.00;96.40;;;;;;5053440;28;20029;-64
2022/04/30 07:49:53;;;;;;;15.75;7.82;;;33.00;96.70;;;;;;5053653;28;20036;-64
2022/04/30 07:52:20;;;;;;;12.27;7.97;;;32.90;97.00;;;;;;5053952;28;20029;-65
2022/04/30 07:54:47;;;;;;;10.88;6.32;;;32.90;97.40;;;;;;5041067;28;20021;-65
2022/04/30 07:57:13;;;;;;;9.32;5.95;;;32.80;97.20;;;;;;5037857;28;20048;-62
2022/04/30 07:59:40;;;;;;;11.77;6.70;;;32.80;97.80;;;;;;5042514;28;20032;-63
2022/04/30 08:02:07;;;;;;;12.65;7.78;;;32.80;97.90;;;;;;5043107;28;20091;-62
2022/04/30 08:04:34;;;;;;;13.27;8.93;;;32.80;98.10;;;;;;5043552;28;20481;-65
2022/04/30 08:07:01;;;;;;;15.43;9.07;;;32.70;97.80;;;;;;5043491;28;20037;-64
2022/04/30 08:09:27;;;;;;;9.63;6.93;;;32.70;97.80;;;;;;5044380;28;20037;-62
2022/04/30 08:11:54;;;;;;;9.88;6.70;;;32.70;98.40;;;;;;5042916;28;20054;-64
2022/04/30 08:14:21;;;;;;;11.77;6.50;;;32.70;98.40;;;;;;5041947;28;20116;-63
2022/04/30 08:16:47;;;;;;;15.60;10.32;;;32.80;98.20;;;;;;5042830;28;20478;-63
2022/04/30 08:19:15;;;;;;;11.63;7.32;;;32.80;97.40;;;;;;5043086;28;20094;-62
2022/04/30 08:21:43;;;;;;;10.50;7.30;;;32.80;98.20;;;;;;5041386;28;20457;-63
2022/04/30 08:24:09;;;;;;;10.25;7.30;;;32.80;97.90;;;;;;5044053;28;20445;-62
2022/04/30 08:26:37;;;;;;;13.90;6.93;;;32.80;97.80;;;;;;5043123;28;20032;-62
2022/04/30 08:29:04;;;;;;;12.07;6.80;;;32.80;97.90;;;;;;5048437;28;20049;-63
2022/04/30 08:31:30;;;;;;;11.23;6.93;;;32.90;98.00;;;;;;5045418;28;20036;-63
2022/04/30 08:33:57;;;;;;;12.88;8.43;;;32.90;98.40;;;;;;5046465;28;20025;-63
2022/04/30 08:36:23;;;;;;;7.97;6.55;;;32.90;98.10;;;;;;5044973;28;20033;-63
2022/04/30 08:38:50;;;;;;;10.57;6.43;;;32.90;97.80;;;;;;5042773;28;20068;-64
2022/04/30 08:41:17;;;;;;;11.00;5.93;;;32.90;97.60;;;;;;5040693;28;20079;-65
2022/04/30 08:43:48;;;;;;;9.40;6.20;;;32.80;98.00;;;;;;5042815;28;20037;-64
2022/04/30 08:46:20;;;;;;;12.00;6.20;;;32.90;98.20;;;;;;5041260;28;20100;-64
2022/04/30 08:48:47;;;;;;;7.95;5.75;;;32.90;98.30;;;;;;5040386;28;20029;-64
2022/04/30 08:51:16;;;;;;;15.55;6.72;;;32.90;97.80;;;;;;5040235;28;20025;-65
2022/04/30 08:53:43;;;;;;;17.05;7.55;;;32.90;98.60;;;;;;5042386;28;20021;-61
2022/04/30 08:56:10;;;;;;;14.48;7.57;;;32.80;97.60;;;;;;5040478;28;20037;-61
2022/04/30 08:58:37;;;;;;;11.88;7.57;;;32.70;97.60;;;;;;5042249;28;20026;-64
2022/04/30 09:01:07;;;;;;;12.82;7.13;;;32.70;98.60;;;;;;5044150;28;20033;-62
2022/04/30 09:03:36;;;;;;;16.70;9.77;;;32.70;98.50;;;;;;5050807;28;20128;-62
2022/04/30 09:06:06;;;;;;;41.03;24.88;;;32.70;98.00;;;;;;5048707;28;20079;-64
2022/04/30 09:08:33;;;;;;;23.42;15.68;;;32.70;98.20;;;;;;5044218;28;20124;-64
2022/04/30 09:11:06;;;;;;;11.65;7.72;;;32.70;99.00;;;;;;5056829;28;20025;-67
2022/04/30 09:13:40;;;;;;;13.57;6.88;;;32.70;98.70;;;;;;5055700;28;20029;-65
2022/04/30 09:16:19;;;;;;;13.18;7.13;;;32.70;98.60;;;;;;5056556;28;20036;-67
2022/04/30 09:18:45;;;;;;;29.48;20.00;;;32.80;98.70;;;;;;5056811;28;20143;-66
2022/04/30 09:21:17;;;;;;;25.75;17.40;;;32.70;97.30;;;;;;5055583;28;20108;-66
2022/04/30 09:23:44;;;;;;;19.77;12.73;;;32.60;97.60;;;;;;5050753;28;20159;-65
2022/04/30 09:26:11;;;;;;;19.27;12.07;;;32.60;97.50;;;;;;5043690;28;20033;-64
2022/04/30 09:28:41;;;;;;;26.05;16.05;;;32.40;97.10;;;;;;5047272;28;20091;-67
2022/04/30 09:31:16;;;;;;;36.35;20.52;;;32.40;97.80;;;;;;5044529;28;20493;-64
2022/04/30 09:33:55;;;;;;;19.25;11.43;;;32.50;98.30;;;;;;5052115;28;20043;-65
2022/04/30 09:39:18;;;;;;;34.40;19.50;;;32.50;98.80;;;;;;5049608;28;20031;-65
2022/04/30 09:41:46;;;;;;;24.23;14.43;;;32.50;98.90;;;;;;5050595;28;20025;-65
2022/04/30 09:44:16;;;;;;;25.40;12.50;;;32.50;98.60;;;;;;5047735;28;20026;-64
2022/04/30 09:46:43;;;;;;;25.42;15.57;;;32.50;98.80;;;;;;5045994;28;20041;-64
2022/04/30 09:54:13;;;;;;;21.63;11.50;;;32.30;98.40;;;;;;5047963;28;20026;-64
2022/04/30 09:56:45;;;;;;;21.30;12.00;;;32.20;99.10;;;;;;5040848;28;20234;-64
2022/04/30 09:59:13;;;;;;;28.13;15.48;;;32.20;99.50;;;;;;5048569;28;20429;-64
2022/04/30 10:01:42;;;;;;;15.55;10.18;;;32.30;99.20;;;;;;5047843;28;20129;-63
2022/04/30 10:04:12;;;;;;;16.90;9.30;;;32.20;99.10;;;;;;5046507;28;20033;-63
2022/04/30 10:06:44;;;;;;;23.42;10.88;;;32.10;99.20;;;;;;5043854;28;20470;-64
2022/04/30 10:09:14;;;;;;;25.58;12.38;;;32.00;99.40;;;;;;5044267;28;20028;-61
2022/04/30 10:12:00;;;;;;;15.43;10.15;;;31.90;99.40;;;;;;5039833;28;20032;-63
2022/04/30 10:14:51;;;;;;;23.77;9.73;;;31.80;99.50;;;;;;5052026;28;20031;-64
2022/04/30 10:17:20;;;;;;;27.85;15.40;;;31.80;99.80;;;;;;5054245;28;20477;-65
2022/04/30 10:19:54;;;;;;;29.20;16.88;;;31.80;99.90;;;;;;5056065;28;20082;-63
2022/04/30 10:22:20;;;;;;;30.98;15.75;;;31.80;99.90;;;;;;5045071;28;20033;-63
2022/04/30 10:24:49;;;;;;;28.27;13.85;;;31.70;99.90;;;;;;5057789;28;20365;-64
2022/04/30 10:27:17;;;;;;;23.17;12.02;;;31.70;99.90;;;;;;5056106;28;20078;-62
2022/04/30 10:29:59;;;;;;;24.52;15.38;;;31.80;99.90;;;;;;5055360;28;20470;-63
2022/04/30 10:32:34;;;;;;;35.00;19.27;;;31.80;99.90;;;;;;5046141;28;20068;-64
2022/04/30 10:35:02;;;;;;;102.25;52.67;;;31.90;99.90;;;;;;5052180;28;20083;-66
2022/04/30 10:37:32;;;;;;;34.47;18.10;;;31.90;99.90;;;;;;5040645;28;20034;-66
2022/04/30 10:40:06;;;;;;;30.90;16.65;;;31.80;99.90;;;;;;5047945;28;20091;-66
2022/04/30 10:42:41;;;;;;;42.03;22.70;;;31.60;99.90;;;;;;5036662;28;20041;-66
2022/04/30 10:45:13;;;;;;;40.83;20.75;;;31.60;99.90;;;;;;5052681;28;20031;-65
2022/04/30 10:47:58;;;;;;;55.00;27.48;;;31.60;99.90;;;;;;5056843;28;20418;-65
2022/04/30 10:50:25;;;;;;;47.25;25.00;;;31.50;99.90;;;;;;5056615;28;20036;-65
2022/04/30 10:52:54;;;;;;;40.22;19.50;;;31.50;99.90;;;;;;5055988;28;20029;-64
2022/04/30 10:55:22;;;;;;;42.58;20.75;;;31.50;99.90;;;;;;5056836;28;20040;-62
2022/04/30 10:57:49;;;;;;;42.25;22.35;;;31.40;99.90;;;;;;5041488;28;20025;-64
2022/04/30 11:00:16;;;;;;;28.13;18.70;;;31.40;99.90;;;;;;5051488;28;20147;-63
2022/04/30 11:02:43;;;;;;;39.63;22.38;;;31.40;99.90;;;;;;5060434;28;20052;-61
2022/04/30 11:05:23;;;;;;;39.05;21.90;;;31.40;99.90;;;;;;5067556;28;20048;-62
2022/04/30 11:07:51;;;;;;;34.72;18.30;;;31.40;99.90;;;;;;5050590;28;20290;-62
2022/04/30 11:10:17;;;;;;;71.43;53.75;;;31.40;99.90;;;;;;5050098;28;20036;-63
2022/04/30 11:12:44;;;;;;;40.45;28.80;;;31.30;99.90;;;;;;5053751;28;20033;-62
2022/04/30 11:15:13;;;;;;;116.82;73.57;;;31.20;99.90;;;;;;5053969;28;20021;-62
2022/04/30 11:17:45;;;;;;;87.80;54.92;;;31.20;99.90;;;;;;5052279;28;20040;-61
2022/04/30 11:20:20;;;;;;;66.18;33.85;;;31.20;99.90;;;;;;5052863;28;20025;-61
2022/04/30 11:22:52;;;;;;;99.15;63.05;;;31.10;99.90;;;;;;5063723;28;20033;-65
2022/04/30 11:25:19;;;;;;;84.95;57.88;;;31.00;99.90;;;;;;5055266;28;20025;-63
2022/04/30 11:27:46;;;;;;;52.95;36.90;;;31.00;99.90;;;;;;5060737;28;20029;-62
2022/04/30 11:30:13;;;;;;;40.05;25.83;;;30.90;99.90;;;;;;5074630;28;20028;-63
2022/04/30 11:32:40;;;;;;;33.85;20.80;;;30.80;99.90;;;;;;5074882;28;20074;-62
2022/04/30 11:35:07;;;;;;;33.75;19.13;;;30.80;99.90;;;;;;5069022;28;20033;-61
2022/04/30 11:37:38;;;;;;;34.80;19.75;;;30.80;99.90;;;;;;5052339;28;20090;-62
2022/04/30 11:40:06;;;;;;;35.58;21.73;;;30.70;99.90;;;;;;5044170;28;20025;-62
2022/04/30 11:42:33;;;;;;;39.78;24.20;;;30.80;99.90;;;;;;5048184;28;20075;-62
2022/04/30 11:45:00;;;;;;;86.40;64.10;;;30.70;99.90;;;;;;5055012;28;20059;-62
2022/04/30 11:47:27;;;;;;;71.97;48.25;;;30.70;99.90;;;;;;5055093;28;20489;-63
2022/04/30 11:50:10;;;;;;;79.50;52.95;;;30.80;99.90;;;;;;5054786;28;20032;-62
2022/04/30 11:52:37;;;;;;;92.20;59.20;;;30.70;99.90;;;;;;5056787;28;20028;-62
2022/04/30 11:55:08;;;;;;;42.00;29.08;;;30.70;99.90;;;;;;5069489;28;20029;-64
2022/04/30 11:57:35;;;;;;;35.58;23.33;;;30.60;99.90;;;;;;5054465;28;20028;-66
2022/04/30 12:00:03;;;;;;;47.67;31.05;;;30.50;99.90;;;;;;5054415;28;20158;-65
2022/04/30 12:02:30;;;;;;;36.78;28.58;;;30.40;99.90;;;;;;5053872;28;20520;-64
2022/04/30 12:05:03;;;;;;;43.40;30.67;;;30.20;99.90;;;;;;5052367;28;20178;-64
2022/04/30 12:07:37;;;;;;;24.85;16.30;;;30.10;99.90;;;;;;5053620;28;20044;-60
2022/04/30 12:10:14;;;;;;;30.35;19.90;;;30.10;99.90;;;;;;5047012;28;20115;-63
2022/04/30 12:12:41;;;;;;;37.20;21.58;;;30.10;99.90;;;;;;5049386;28;20082;-63
2022/04/30 12:15:19;;;;;;;36.00;20.15;;;30.20;99.90;;;;;;5053891;28;20098;-63
2022/04/30 12:24:40;;;;;;;32.40;18.40;;;30.20;99.90;;;;;;5053726;28;20032;-62
2022/04/30 12:26:03;;;;;;;30.20;17.25;;;30.20;99.90;;;;;;5053171;28;20096;-61
2022/04/30 12:28:41;;;;;;;28.20;16.85;;;30.20;99.90;;;;;;5039027;28;20136;-61
2022/04/30 12:31:10;;;;;;;29.48;17.00;;;30.10;99.90;;;;;;5036424;28;20417;-61
2022/04/30 12:33:45;;;;;;;24.05;17.27;;;30.00;99.90;;;;;;5053467;28;20025;-61
2022/04/30 12:36:13;;;;;;;21.63;15.65;;;30.10;99.90;;;;;;5055974;28;20021;-60
2022/04/30 12:38:40;;;;;;;23.70;15.32;;;30.10;99.90;;;;;;5054606;28;20049;-61
2022/04/30 12:41:06;;;;;;;21.42;15.43;;;30.10;99.90;;;;;;5032429;28;20043;-62
2022/04/30 12:43:36;;;;;;;28.10;18.00;;;30.10;99.90;;;;;;5048255;28;20036;-60
2022/04/30 12:46:04;;;;;;;28.58;16.75;;;30.00;99.90;;;;;;5049756;28;20025;-62
2022/04/30 12:48:33;;;;;;;23.63;15.77;;;29.90;99.90;;;;;;5052310;28;20078;-64
2022/04/30 12:51:00;;;;;;;24.38;17.75;;;29.90;99.90;;;;;;5046123;28;20055;-61
2022/04/30 12:53:26;;;;;;;26.83;17.92;;;29.80;99.90;;;;;;5034731;28;20477;-63
2022/04/30 12:55:54;;;;;;;35.38;21.35;;;29.80;99.90;;;;;;5048503;28;20025;-62
2022/04/30 12:58:24;;;;;;;30.33;17.90;;;29.80;99.90;;;;;;5047199;28;20025;-62
2022/04/30 13:00:53;;;;;;;26.20;17.92;;;29.60;99.90;;;;;;5046889;28;20390;-61
2022/04/30 13:03:20;;;;;;;29.63;17.15;;;29.60;99.90;;;;;;5047163;28;20049;-62
2022/04/30 13:05:47;;;;;;;30.55;18.55;;;29.60;99.90;;;;;;5049829;28;20033;-62
2022/04/30 13:08:14;;;;;;;26.48;18.05;;;29.50;99.90;;;;;;5044480;28;20028;-62
2022/04/30 13:13:31;;;;;;;34.92;21.05;;;29.40;99.90;;;;;;5052643;28;20242;-63
2022/04/30 13:15:59;;;;;;;32.90;20.83;;;29.50;99.90;;;;;;5045958;28;20056;-61
2022/04/30 13:18:25;;;;;;;26.65;18.40;;;29.50;99.90;;;;;;5051915;28;20021;-61
2022/04/30 13:20:52;;;;;;;25.52;18.30;;;29.60;99.90;;;;;;5055993;28;20024;-62